Time;durP1;ratioP1;P1;durP2;ratioP2;P2;SDS_P1;SDS_P2;PMS_P1;PMS_P2;Temp;Humidity;BMP_temperature;BMP_pressure;BME280_temperature;BME280_humidity;BME280_pressure;Samples;Min_cycle;Max_cycle;Signal;HPM_P1;HPM_P2
2021/06/21 00:00:25;;;;;;;21.52;19.10;;;22.70;99.90;;;;;;5078805;28;20112;-77
2021/06/21 00:02:50;;;;;;;24.35;21.83;;;22.70;99.90;;;;;;5076874;28;20103;-75
2021/06/21 00:05:17;;;;;;;22.48;20.13;;;22.70;99.90;;;;;;5073593;28;20460;-74
2021/06/21 00:07:43;;;;;;;22.35;20.05;;;22.60;99.90;;;;;;5074880;28;20524;-74
2021/06/21 00:10:11;;;;;;;26.02;20.63;;;22.60;99.90;;;;;;5078548;28;20028;-74
2021/06/21 00:12:39;;;;;;;24.85;21.27;;;22.60;99.90;;;;;;5077744;28;20020;-73
2021/06/21 00:15:05;;;;;;;24.95;22.20;;;22.50;99.90;;;;;;5080181;28;20020;-72
2021/06/21 00:17:31;;;;;;;26.25;23.48;;;22.40;99.90;;;;;;5086627;28;20484;-73
2021/06/21 00:19:57;;;;;;;25.75;21.83;;;22.40;99.90;;;;;;5075277;28;20025;-73
2021/06/21 00:22:22;;;;;;;25.92;21.38;;;22.50;99.90;;;;;;5078203;28;20442;-73
2021/06/21 00:24:48;;;;;;;23.80;21.30;;;22.40;99.90;;;;;;5086075;28;20020;-74
2021/06/21 00:27:14;;;;;;;25.85;23.08;;;22.40;99.90;;;;;;5075865;28;20058;-72
2021/06/21 00:29:40;;;;;;;30.88;24.00;;;22.50;99.90;;;;;;5067354;28;20028;-73
2021/06/21 00:32:06;;;;;;;63.95;33.38;;;22.40;99.90;;;;;;5072644;28;20025;-73
2021/06/21 00:34:32;;;;;;;55.00;31.42;;;22.30;99.90;;;;;;5075896;28;20497;-74
2021/06/21 00:36:58;;;;;;;47.60;29.65;;;22.40;99.90;;;;;;5066867;28;20019;-72
2021/06/21 00:39:24;;;;;;;27.25;22.05;;;22.30;99.90;;;;;;5075645;28;20028;-72
2021/06/21 00:41:49;;;;;;;27.52;22.55;;;22.10;99.90;;;;;;5073875;28;20543;-72
2021/06/21 00:44:15;;;;;;;23.15;20.27;;;21.90;99.90;;;;;;5074129;28;20012;-74
2021/06/21 00:46:41;;;;;;;23.50;21.08;;;21.80;99.90;;;;;;5068283;28;20400;-71
2021/06/21 00:49:06;;;;;;;24.10;21.50;;;21.80;99.90;;;;;;5068326;28;20033;-71
2021/06/21 00:51:32;;;;;;;17.73;15.93;;;21.80;99.90;;;;;;5072886;28;20024;-74
2021/06/21 00:53:58;;;;;;;21.80;19.52;;;21.80;99.90;;;;;;5077406;28;20083;-72
2021/06/21 00:56:24;;;;;;;22.90;20.60;;;22.00;99.90;;;;;;5072159;28;20468;-72
2021/06/21 00:58:57;;;;;;;23.58;20.85;;;21.90;99.90;;;;;;5075171;28;20050;-70
2021/06/21 01:01:23;;;;;;;22.67;20.33;;;22.00;99.90;;;;;;5071594;28;20024;-71
2021/06/21 01:03:48;;;;;;;23.00;20.52;;;21.90;99.90;;;;;;5069392;28;20111;-71
2021/06/21 01:06:14;;;;;;;24.60;22.10;;;22.00;99.90;;;;;;5067673;28;20028;-72
2021/06/21 01:08:40;;;;;;;22.65;20.35;;;22.00;99.90;;;;;;5078518;28;20437;-72
2021/06/21 01:11:06;;;;;;;23.05;20.65;;;22.10;99.90;;;;;;5068439;28;20025;-74
2021/06/21 01:13:57;;;;;;;22.42;20.10;;;22.00;99.90;;;;;;5075662;28;20036;-71
2021/06/21 01:16:30;;;;;;;23.60;19.77;;;22.00;99.90;;;;;;5074657;28;20494;-72
2021/06/21 01:19:23;;;;;;;21.33;19.23;;;22.00;99.90;;;;;;5073423;28;20030;-71
2021/06/21 01:22:15;;;;;;;21.50;19.23;;;21.90;99.90;;;;;;5072234;28;20032;-71
2021/06/21 01:25:06;;;;;;;23.38;20.77;;;22.00;99.90;;;;;;5077169;28;20094;-72
2021/06/21 01:27:53;;;;;;;25.55;19.40;;;21.90;99.90;;;;;;5074678;28;20033;-72
2021/06/21 01:30:23;;;;;;;21.73;19.45;;;21.90;99.90;;;;;;5067338;28;20017;-71
2021/06/21 01:32:57;;;;;;;22.90;19.98;;;21.80;99.90;;;;;;5073945;28;20052;-72
2021/06/21 01:35:39;;;;;;;21.27;19.02;;;21.90;99.90;;;;;;5085798;28;20016;-72
2021/06/21 01:38:20;;;;;;;22.20;19.40;;;21.90;99.90;;;;;;5077385;28;20028;-72
2021/06/21 01:40:52;;;;;;;21.38;17.75;;;21.80;99.90;;;;;;5073957;28;20035;-72
2021/06/21 01:43:22;;;;;;;19.88;17.85;;;21.90;99.90;;;;;;5075923;28;20469;-72
2021/06/21 01:45:49;;;;;;;19.23;17.23;;;21.90;99.90;;;;;;5071616;28;20103;-72
2021/06/21 01:48:16;;;;;;;21.02;18.92;;;21.90;99.90;;;;;;5071654;28;20492;-72
2021/06/21 01:50:45;;;;;;;18.75;17.00;;;21.90;99.90;;;;;;5072090;28;20099;-72
2021/06/21 01:53:14;;;;;;;19.65;17.27;;;21.80;99.90;;;;;;5071271;28;20060;-72
2021/06/21 01:55:46;;;;;;;19.52;16.50;;;21.70;99.90;;;;;;5072128;28;20019;-74
2021/06/21 01:58:13;;;;;;;18.90;16.95;;;21.70;99.90;;;;;;5071826;28;20031;-74
2021/06/21 02:00:41;;;;;;;18.27;16.45;;;21.70;99.90;;;;;;5074919;28;20029;-75
2021/06/21 02:03:08;;;;;;;23.05;18.30;;;21.80;99.90;;;;;;5074829;28;20068;-75
2021/06/21 02:05:36;;;;;;;15.55;13.93;;;21.80;99.90;;;;;;5069550;28;20070;-75
2021/06/21 02:08:04;;;;;;;15.77;14.38;;;21.70;99.90;;;;;;5074279;28;20503;-74
2021/06/21 02:10:32;;;;;;;15.68;14.15;;;21.80;99.90;;;;;;5067766;28;20093;-71
2021/06/21 02:12:59;;;;;;;16.15;14.55;;;21.70;99.90;;;;;;5082226;28;20036;-75
2021/06/21 02:15:27;;;;;;;14.93;13.25;;;21.60;99.90;;;;;;5071517;28;20017;-73
2021/06/21 02:17:52;;;;;;;12.20;11.18;;;21.60;99.90;;;;;;5071906;28;20033;-75
2021/06/21 02:20:20;;;;;;;14.25;11.93;;;21.40;99.90;;;;;;5072785;28;20043;-75
2021/06/21 02:22:47;;;;;;;11.93;10.68;;;21.50;99.90;;;;;;5064394;28;20039;-73
2021/06/21 02:25:13;;;;;;;11.85;10.65;;;21.40;99.90;;;;;;5066288;28;20020;-74
2021/06/21 02:27:40;;;;;;;12.10;11.05;;;21.40;99.90;;;;;;5067543;28;20028;-72
2021/06/21 02:30:12;;;;;;;12.43;11.20;;;21.30;99.90;;;;;;5063247;28;20040;-73
2021/06/21 02:32:40;;;;;;;13.00;11.50;;;21.10;99.90;;;;;;5075413;28;20028;-73
2021/06/21 02:35:09;;;;;;;12.43;11.15;;;21.10;99.90;;;;;;5068852;28;20103;-71
2021/06/21 02:37:36;;;;;;;11.88;10.77;;;21.20;99.90;;;;;;5074727;28;20523;-75
2021/06/21 02:40:05;;;;;;;11.23;10.13;;;21.30;99.90;;;;;;5072734;28;20025;-73
2021/06/21 02:42:30;;;;;;;10.98;9.88;;;21.20;99.90;;;;;;5073867;28;20035;-73
2021/06/21 02:44:56;;;;;;;11.07;9.98;;;21.30;99.90;;;;;;5067655;28;20028;-73
2021/06/21 02:47:22;;;;;;;15.43;10.45;;;21.30;99.90;;;;;;5068192;28;20020;-73
2021/06/21 02:49:48;;;;;;;12.82;9.75;;;21.10;99.90;;;;;;5065082;28;20021;-73
2021/06/21 02:52:33;;;;;;;9.80;7.47;;;21.00;99.90;;;;;;5068682;28;20114;-73
2021/06/21 02:55:07;;;;;;;8.20;7.40;;;20.90;99.90;;;;;;5062146;28;20024;-73
2021/06/21 02:58:09;;;;;;;7.68;6.97;;;20.90;99.90;;;;;;5067915;28;20489;-73
2021/06/21 03:00:39;;;;;;;11.07;7.73;;;20.80;99.90;;;;;;5070953;28;20028;-73
2021/06/21 03:03:08;;;;;;;8.52;7.68;;;20.70;99.90;;;;;;5071749;28;20021;-73
2021/06/21 03:05:34;;;;;;;10.38;7.90;;;20.60;99.90;;;;;;5073664;28;20373;-73
2021/06/21 03:08:01;;;;;;;8.18;6.22;;;20.40;99.90;;;;;;5067152;28;20073;-73
2021/06/21 03:10:29;;;;;;;7.32;6.63;;;20.40;99.90;;;;;;5069811;28;20044;-73
2021/06/21 03:12:56;;;;;;;8.93;7.93;;;20.40;99.90;;;;;;5072235;28;20433;-73
2021/06/21 03:15:25;;;;;;;7.43;6.60;;;20.40;99.90;;;;;;5073758;28;20040;-73
2021/06/21 03:17:53;;;;;;;7.70;7.00;;;20.40;99.90;;;;;;5076806;28;20044;-73
2021/06/21 03:20:20;;;;;;;8.20;7.40;;;20.40;99.90;;;;;;5071301;28;20037;-73
2021/06/21 03:22:55;;;;;;;8.68;7.65;;;20.40;99.90;;;;;;5072999;28;20041;-71
2021/06/21 03:25:35;;;;;;;6.75;6.07;;;20.30;99.90;;;;;;5070967;28;20012;-73
2021/06/21 03:28:10;;;;;;;9.20;6.57;;;20.30;99.90;;;;;;5070344;28;20027;-73
2021/06/21 03:30:39;;;;;;;7.85;6.80;;;20.30;99.90;;;;;;5065581;28;20384;-72
2021/06/21 03:33:05;;;;;;;6.68;5.97;;;20.30;99.90;;;;;;5063993;28;20026;-73
2021/06/21 03:35:31;;;;;;;6.90;6.30;;;20.30;99.90;;;;;;5079542;28;20032;-71
2021/06/21 03:38:08;;;;;;;6.55;5.97;;;20.30;99.90;;;;;;5066124;28;20033;-71
2021/06/21 03:40:34;;;;;;;6.50;5.90;;;20.30;99.90;;;;;;5068585;28;20025;-73
2021/06/21 03:43:00;;;;;;;6.68;6.18;;;20.30;99.90;;;;;;5064364;28;20443;-73
2021/06/21 03:45:25;;;;;;;6.80;6.07;;;20.30;99.90;;;;;;5068021;28;20428;-74
2021/06/21 03:47:51;;;;;;;8.27;5.13;;;20.20;99.90;;;;;;5073968;28;20024;-75
2021/06/21 03:50:16;;;;;;;7.05;5.95;;;20.30;99.90;;;;;;5071403;28;20481;-73
2021/06/21 03:52:42;;;;;;;6.78;6.07;;;20.20;99.90;;;;;;5068477;28;20100;-72
2021/06/21 03:55:09;;;;;;;5.93;5.38;;;20.20;99.90;;;;;;5071250;28;20024;-76
2021/06/21 03:57:44;;;;;;;6.00;5.40;;;20.20;99.90;;;;;;5077412;28;20027;-76
2021/06/21 04:00:16;;;;;;;6.82;5.43;;;20.20;99.90;;;;;;5084627;28;20059;-71
2021/06/21 04:02:41;;;;;;;5.22;4.75;;;20.10;99.90;;;;;;5090497;28;20054;-72
2021/06/21 04:05:08;;;;;;;5.45;5.00;;;20.10;99.90;;;;;;5082131;28;20079;-71
2021/06/21 04:07:34;;;;;;;6.40;4.25;;;20.00;99.90;;;;;;5086053;28;20024;-71
2021/06/21 04:10:01;;;;;;;4.18;3.88;;;19.80;99.90;;;;;;5081096;28;20035;-71
2021/06/21 04:12:27;;;;;;;3.65;3.35;;;19.70;99.90;;;;;;5088256;28;20024;-71
2021/06/21 04:14:52;;;;;;;4.28;3.47;;;19.70;99.90;;;;;;5084161;28;20024;-71
2021/06/21 04:17:18;;;;;;;4.40;4.00;;;19.60;99.90;;;;;;5085370;28;20026;-71
2021/06/21 04:19:44;;;;;;;4.50;4.10;;;19.60;99.90;;;;;;5076435;28;20042;-73
2021/06/21 04:22:10;;;;;;;3.38;3.08;;;19.50;99.90;;;;;;5083709;28;20039;-75
2021/06/21 04:24:35;;;;;;;2.63;2.42;;;19.50;99.90;;;;;;5087355;28;20025;-76
2021/06/21 04:27:01;;;;;;;2.70;2.50;;;19.60;99.90;;;;;;5082067;28;20032;-73
2021/06/21 04:29:27;;;;;;;4.32;3.10;;;19.50;99.90;;;;;;5075861;28;20430;-72
2021/06/21 04:31:53;;;;;;;3.72;2.80;;;19.70;99.90;;;;;;5077283;28;20058;-73
2021/06/21 04:34:18;;;;;;;3.58;2.83;;;19.60;99.90;;;;;;5083487;28;20047;-70
2021/06/21 04:36:44;;;;;;;4.10;2.83;;;19.60;99.90;;;;;;5085052;28;20073;-70
2021/06/21 04:39:10;;;;;;;5.47;3.30;;;19.50;99.90;;;;;;5079696;28;20108;-70
2021/06/21 04:41:36;;;;;;;3.65;3.13;;;19.60;99.90;;;;;;5082889;28;20044;-70
2021/06/21 04:44:01;;;;;;;4.88;3.38;;;19.50;99.90;;;;;;5074772;28;20095;-70
2021/06/21 04:46:29;;;;;;;4.10;3.25;;;19.50;99.90;;;;;;5083341;28;20102;-70
2021/06/21 04:48:56;;;;;;;2.95;2.65;;;19.50;99.90;;;;;;5082534;28;20024;-72
2021/06/21 04:51:22;;;;;;;4.32;3.20;;;19.50;99.90;;;;;;5076683;28;20024;-72
2021/06/21 04:53:48;;;;;;;3.45;3.15;;;19.50;99.90;;;;;;5077745;28;20518;-72
2021/06/21 04:56:15;;;;;;;3.97;3.63;;;19.50;99.90;;;;;;5086900;28;20039;-71
2021/06/21 04:58:41;;;;;;;4.82;3.53;;;19.40;99.90;;;;;;5079622;28;20112;-71
2021/06/21 05:01:07;;;;;;;4.75;3.85;;;19.50;99.90;;;;;;5077707;28;20036;-71
2021/06/21 05:03:36;;;;;;;3.17;2.97;;;19.40;99.90;;;;;;5088401;28;20032;-72
2021/06/21 05:06:06;;;;;;;4.43;3.88;;;19.30;99.90;;;;;;5082992;28;20032;-72
2021/06/21 05:08:32;;;;;;;3.90;3.50;;;19.30;99.90;;;;;;5081855;28;20385;-73
2021/06/21 05:10:58;;;;;;;3.90;3.60;;;19.20;99.90;;;;;;5083877;28;20024;-72
2021/06/21 05:13:23;;;;;;;3.30;3.10;;;19.30;99.90;;;;;;5086773;28;20028;-72
2021/06/21 05:15:49;;;;;;;3.08;2.83;;;19.30;99.90;;;;;;5085767;28;20075;-75
2021/06/21 05:18:15;;;;;;;3.83;2.60;;;19.30;99.90;;;;;;5079048;28;20027;-72
2021/06/21 05:20:41;;;;;;;3.67;3.33;;;19.40;99.90;;;;;;5081907;28;20033;-71
2021/06/21 05:23:06;;;;;;;3.55;2.90;;;19.40;99.90;;;;;;5078718;28;20404;-74
2021/06/21 05:25:33;;;;;;;2.75;2.08;;;19.40;99.90;;;;;;5098934;28;20028;-75
2021/06/21 05:28:00;;;;;;;2.72;2.53;;;19.40;99.90;;;;;;5087050;28;20035;-74
2021/06/21 05:30:26;;;;;;;2.72;2.38;;;19.40;99.90;;;;;;5070313;28;20514;-74
2021/06/21 05:32:51;;;;;;;5.15;2.60;;;19.40;99.90;;;;;;5082108;28;20032;-72
2021/06/21 05:35:17;;;;;;;2.60;2.28;;;19.30;99.90;;;;;;5077429;28;20103;-72
2021/06/21 05:37:43;;;;;;;3.30;3.00;;;19.40;99.90;;;;;;5085434;28;20024;-73
2021/06/21 05:40:10;;;;;;;2.33;2.13;;;19.40;99.90;;;;;;5101031;28;20035;-72
2021/06/21 05:42:35;;;;;;;3.17;2.88;;;19.20;99.90;;;;;;5075572;28;20021;-75
2021/06/21 05:45:01;;;;;;;2.38;2.25;;;19.20;99.90;;;;;;5077674;28;20039;-74
2021/06/21 05:47:27;;;;;;;2.25;2.05;;;19.20;99.90;;;;;;5073502;28;20036;-75
2021/06/21 05:49:52;;;;;;;2.60;2.40;;;19.30;99.90;;;;;;5076574;28;20036;-70
2021/06/21 05:52:18;;;;;;;3.08;2.78;;;19.10;99.90;;;;;;5077149;28;20025;-73
2021/06/21 05:54:44;;;;;;;3.30;3.00;;;19.10;99.90;;;;;;5078951;28;20468;-74
2021/06/21 05:57:09;;;;;;;3.67;3.10;;;19.20;99.90;;;;;;5082345;28;20048;-76
2021/06/21 05:59:35;;;;;;;5.43;3.25;;;19.20;99.90;;;;;;5079128;28;20032;-75
2021/06/21 06:02:01;;;;;;;7.95;3.00;;;19.30;99.90;;;;;;5072989;28;20484;-74
2021/06/21 06:04:27;;;;;;;3.55;2.88;;;19.30;99.90;;;;;;5080911;28;20032;-73
2021/06/21 06:06:52;;;;;;;3.17;2.80;;;19.30;99.90;;;;;;5081048;28;20111;-72
2021/06/21 06:09:18;;;;;;;2.85;2.00;;;19.20;99.90;;;;;;5076809;28;20028;-77
2021/06/21 06:11:43;;;;;;;2.78;2.58;;;19.20;99.90;;;;;;5072864;28;20024;-76
2021/06/21 06:14:09;;;;;;;3.13;2.60;;;19.20;99.90;;;;;;5082137;28;20437;-76
2021/06/21 06:16:35;;;;;;;2.67;2.45;;;19.10;99.90;;;;;;5081889;28;20107;-75
2021/06/21 06:19:01;;;;;;;2.13;1.92;;;19.10;99.90;;;;;;5078521;28;20084;-74
2021/06/21 06:21:29;;;;;;;4.97;2.63;;;19.00;99.90;;;;;;5078297;28;20048;-74
2021/06/21 06:23:56;;;;;;;3.30;2.45;;;19.00;99.90;;;;;;5078944;28;20031;-73
2021/06/21 06:26:22;;;;;;;2.10;2.00;;;19.10;99.90;;;;;;5077840;28;20081;-74
2021/06/21 06:28:48;;;;;;;3.88;2.47;;;19.00;99.90;;;;;;5075880;28;20107;-73
2021/06/21 06:31:14;;;;;;;4.75;2.55;;;19.00;99.90;;;;;;5081011;28;20032;-73
2021/06/21 06:33:40;;;;;;;5.30;2.70;;;19.10;99.90;;;;;;5079265;28;20385;-73
2021/06/21 06:36:05;;;;;;;2.80;2.58;;;19.10;99.90;;;;;;5080166;28;20028;-73
2021/06/21 06:38:31;;;;;;;3.15;2.67;;;19.10;99.90;;;;;;5076593;28;20017;-74
2021/06/21 06:40:58;;;;;;;3.05;2.72;;;19.10;99.90;;;;;;5071286;28;20473;-72
2021/06/21 06:43:24;;;;;;;7.78;2.92;;;19.10;99.90;;;;;;5076689;28;20031;-71
2021/06/21 06:45:50;;;;;;;2.53;2.33;;;19.10;99.90;;;;;;5080477;28;20032;-71
2021/06/21 06:48:15;;;;;;;3.47;2.78;;;19.00;99.90;;;;;;5084565;28;20132;-72
2021/06/21 06:50:41;;;;;;;5.88;2.88;;;18.90;99.90;;;;;;5075706;28;20032;-72
2021/06/21 06:53:07;;;;;;;5.88;3.05;;;18.90;99.90;;;;;;5078530;28;20028;-72
2021/06/21 06:58:17;;;;;;;3.00;2.70;;;18.90;99.90;;;;;;5080615;28;20083;-71
2021/06/21 07:00:43;;;;;;;2.65;2.45;;;18.90;99.90;;;;;;5081284;28;20051;-70
2021/06/21 07:03:10;;;;;;;3.10;2.83;;;18.80;99.90;;;;;;5072302;28;20035;-71
2021/06/21 07:05:36;;;;;;;2.63;2.40;;;18.80;99.90;;;;;;5074179;28;20446;-71
2021/06/21 07:08:02;;;;;;;3.78;2.28;;;18.80;99.90;;;;;;5075667;28;20111;-73
2021/06/21 07:10:28;;;;;;;2.53;1.98;;;18.80;99.90;;;;;;5078073;28;20099;-72
2021/06/21 07:12:56;;;;;;;2.00;1.90;;;18.80;99.90;;;;;;5084442;28;20516;-72
2021/06/21 07:15:21;;;;;;;3.95;2.40;;;18.80;99.90;;;;;;5078754;28;20107;-74
2021/06/21 07:17:47;;;;;;;2.40;2.20;;;18.70;99.90;;;;;;5045898;28;20138;-73
2021/06/21 07:20:13;;;;;;;2.25;2.05;;;18.70;99.90;;;;;;5071606;28;20024;-71
2021/06/21 07:22:39;;;;;;;2.55;2.20;;;18.70;99.90;;;;;;5067118;28;20033;-72
2021/06/21 07:25:06;;;;;;;2.50;2.30;;;18.80;99.90;;;;;;5077540;28;20039;-71
2021/06/21 07:27:31;;;;;;;2.10;2.00;;;18.80;99.90;;;;;;5071996;28;20086;-71
2021/06/21 07:29:57;;;;;;;3.00;2.80;;;18.80;99.90;;;;;;5066596;28;20024;-71
2021/06/21 07:32:23;;;;;;;3.05;2.85;;;18.90;99.90;;;;;;5068006;28;20039;-72
2021/06/21 07:34:49;;;;;;;3.10;2.78;;;19.00;99.90;;;;;;5075767;28;20016;-72
2021/06/21 07:37:15;;;;;;;2.95;2.75;;;19.00;99.90;;;;;;5072289;28;20068;-72
2021/06/21 07:39:41;;;;;;;2.80;2.60;;;19.00;99.90;;;;;;5070676;28;20373;-73
2021/06/21 07:42:07;;;;;;;3.03;2.83;;;19.00;99.90;;;;;;5066506;28;20041;-70
2021/06/21 07:44:34;;;;;;;3.03;2.70;;;19.10;99.90;;;;;;5069586;28;20027;-73
2021/06/21 07:47:00;;;;;;;3.17;2.90;;;19.10;99.90;;;;;;5065085;28;20468;-71
2021/06/21 07:49:26;;;;;;;3.25;2.55;;;19.20;99.90;;;;;;5064651;28;20085;-73
2021/06/21 07:51:51;;;;;;;2.70;2.50;;;19.30;99.90;;;;;;5061159;28;20029;-72
2021/06/21 07:54:19;;;;;;;2.28;2.08;;;19.30;99.90;;;;;;5083857;28;20032;-71
2021/06/21 07:56:45;;;;;;;3.00;2.00;;;19.40;99.90;;;;;;5065504;28;20041;-71
2021/06/21 07:59:10;;;;;;;3.78;2.28;;;19.30;99.90;;;;;;5061766;28;20488;-72
2021/06/21 08:01:36;;;;;;;2.13;1.90;;;19.30;99.90;;;;;;5064487;28;20052;-73
2021/06/21 08:04:02;;;;;;;2.08;1.98;;;19.30;99.90;;;;;;5069298;28;20052;-76
2021/06/21 08:06:28;;;;;;;2.33;2.15;;;19.30;99.90;;;;;;5068572;28;20032;-75
2021/06/21 08:08:54;;;;;;;2.50;2.30;;;19.20;99.90;;;;;;5072814;28;20024;-74
2021/06/21 08:11:19;;;;;;;2.00;1.90;;;19.20;99.90;;;;;;5068543;28;20447;-72
2021/06/21 08:13:45;;;;;;;2.20;2.00;;;19.20;99.90;;;;;;5072664;28;20093;-73
2021/06/21 08:16:11;;;;;;;2.47;2.28;;;19.10;99.90;;;;;;5069842;28;20077;-72
2021/06/21 08:18:36;;;;;;;2.25;2.10;;;19.10;99.90;;;;;;5073198;28;20059;-73
2021/06/21 08:21:02;;;;;;;2.15;2.05;;;19.00;99.90;;;;;;5070444;28;20548;-74
2021/06/21 08:23:30;;;;;;;2.70;2.50;;;19.00;99.90;;;;;;5068818;28;20099;-72
2021/06/21 08:25:55;;;;;;;2.80;2.58;;;18.90;99.90;;;;;;5071240;28;20020;-73
2021/06/21 08:28:21;;;;;;;2.30;2.20;;;19.00;99.90;;;;;;5072279;28;20078;-72
2021/06/21 08:30:48;;;;;;;2.53;2.33;;;19.00;99.90;;;;;;5069662;28;20044;-74
2021/06/21 08:33:14;;;;;;;2.50;2.30;;;19.00;99.90;;;;;;5071965;28;20442;-75
2021/06/21 08:35:40;;;;;;;2.85;2.65;;;19.00;99.90;;;;;;5070132;28;20021;-77
2021/06/21 08:38:05;;;;;;;2.35;2.15;;;19.00;99.90;;;;;;5071963;28;20025;-74
2021/06/21 08:40:33;;;;;;;2.58;2.00;;;18.90;99.90;;;;;;5074018;28;20028;-76
2021/06/21 08:43:00;;;;;;;3.95;2.25;;;19.00;99.90;;;;;;5070500;28;20553;-76
2021/06/21 08:45:28;;;;;;;2.63;2.20;;;18.90;99.90;;;;;;5069559;28;20050;-76
2021/06/21 08:47:55;;;;;;;2.95;1.95;;;18.70;99.90;;;;;;5074707;28;20039;-74
2021/06/21 08:50:21;;;;;;;4.72;2.00;;;18.50;99.90;;;;;;5069410;28;20149;-76
2021/06/21 08:52:47;;;;;;;2.65;2.17;;;18.30;99.90;;;;;;5074305;28;20024;-73
2021/06/21 08:55:13;;;;;;;4.95;1.95;;;18.20;99.90;;;;;;5073776;28;20275;-75
2021/06/21 08:57:49;;;;;;;1.88;1.60;;;18.30;99.90;;;;;;5073322;28;20491;-73
2021/06/21 09:00:17;;;;;;;2.60;1.88;;;18.30;99.90;;;;;;5068361;28;20027;-74
2021/06/21 09:02:45;;;;;;;4.68;2.22;;;18.40;99.90;;;;;;5073947;28;20039;-74
2021/06/21 09:05:12;;;;;;;2.00;1.80;;;18.40;99.90;;;;;;5070634;28;20151;-75
2021/06/21 09:07:38;;;;;;;1.98;1.73;;;18.30;99.90;;;;;;5072359;28;20039;-75
2021/06/21 09:10:20;;;;;;;2.20;1.55;;;18.40;99.90;;;;;;5069423;28;20471;-75
2021/06/21 09:12:45;;;;;;;2.45;1.60;;;18.50;99.90;;;;;;5067321;28;20614;-74
2021/06/21 09:15:11;;;;;;;2.03;1.20;;;18.50;99.90;;;;;;5075711;28;20020;-74
2021/06/21 09:17:39;;;;;;;1.40;1.20;;;18.40;99.90;;;;;;5071894;28;20606;-73
2021/06/21 09:20:06;;;;;;;3.05;1.40;;;18.50;99.90;;;;;;5070615;28;20029;-76
2021/06/21 09:22:50;;;;;;;1.75;1.65;;;18.70;99.90;;;;;;5073522;28;20049;-73
2021/06/21 09:25:16;;;;;;;1.30;1.20;;;18.90;99.90;;;;;;5065126;28;20055;-77
2021/06/21 09:27:52;;;;;;;1.65;1.55;;;19.10;99.90;;;;;;5074898;28;20071;-74
2021/06/21 09:30:18;;;;;;;1.63;1.52;;;19.10;99.90;;;;;;5067042;28;20891;-72
2021/06/21 09:32:49;;;;;;;2.03;1.80;;;19.20;99.90;;;;;;5071514;28;20519;-71
2021/06/21 09:35:33;;;;;;;2.00;1.67;;;19.20;99.90;;;;;;5071024;28;20491;-71
2021/06/21 09:38:20;;;;;;;2.05;1.95;;;19.20;99.90;;;;;;5073484;28;20028;-73
2021/06/21 09:40:52;;;;;;;2.17;1.85;;;19.30;99.90;;;;;;5072832;28;20447;-72
2021/06/21 09:43:17;;;;;;;1.55;1.40;;;19.40;99.90;;;;;;5072213;28;20040;-73
2021/06/21 09:46:07;;;;;;;1.38;1.27;;;19.50;99.90;;;;;;5067013;28;20017;-71
2021/06/21 09:48:50;;;;;;;1.15;1.10;;;19.50;99.90;;;;;;5073613;28;20024;-73
2021/06/21 09:51:16;;;;;;;1.05;1.05;;;19.50;99.90;;;;;;5069841;28;20029;-72
2021/06/21 09:53:55;;;;;;;2.20;1.40;;;19.50;99.90;;;;;;5068600;28;20060;-74
2021/06/21 09:56:32;;;;;;;1.27;1.10;;;19.50;99.90;;;;;;5069037;28;20009;-74
2021/06/21 09:58:57;;;;;;;1.00;1.00;;;19.50;99.90;;;;;;5063301;28;20056;-72
2021/06/21 10:01:29;;;;;;;3.33;1.30;;;19.50;99.90;;;;;;5066455;28;20083;-73
2021/06/21 10:03:54;;;;;;;1.30;1.20;;;19.40;99.90;;;;;;5070084;28;20028;-72
2021/06/21 10:06:20;;;;;;;1.58;1.48;;;19.50;99.90;;;;;;5073358;28;20035;-74
2021/06/21 10:08:52;;;;;;;1.40;1.30;;;19.60;99.90;;;;;;5066778;28;20026;-71
2021/06/21 10:11:50;;;;;;;1.35;1.25;;;19.60;99.90;;;;;;5066835;28;20650;-72
2021/06/21 10:14:22;;;;;;;3.08;1.23;;;19.40;99.90;;;;;;5024252;28;20420;-74
2021/06/21 10:16:50;;;;;;;2.10;1.38;;;19.50;99.90;;;;;;5075095;28;20020;-74
2021/06/21 10:19:17;;;;;;;1.55;1.45;;;19.50;99.90;;;;;;5065908;28;20056;-73
2021/06/21 10:21:46;;;;;;;1.85;1.67;;;19.50;99.90;;;;;;5071549;28;20032;-74
2021/06/21 10:24:13;;;;;;;2.28;2.13;;;19.50;99.90;;;;;;5069575;28;20035;-73
2021/06/21 10:26:42;;;;;;;1.70;1.60;;;19.50;99.90;;;;;;5071143;28;20107;-73
2021/06/21 10:29:08;;;;;;;2.00;1.90;;;19.40;99.90;;;;;;5063961;28;20131;-73
2021/06/21 10:31:35;;;;;;;1.40;1.30;;;19.50;99.90;;;;;;5068629;28;20364;-75
2021/06/21 10:34:04;;;;;;;2.10;2.00;;;19.50;99.90;;;;;;5068273;28;20044;-73
2021/06/21 10:36:41;;;;;;;1.98;1.88;;;19.60;99.90;;;;;;5072622;28;20022;-72
2021/06/21 10:39:18;;;;;;;2.03;1.92;;;19.70;99.90;;;;;;5071862;28;20017;-75
2021/06/21 10:42:06;;;;;;;2.35;2.20;;;19.80;99.90;;;;;;5072862;28;20032;-76
2021/06/21 10:44:41;;;;;;;2.60;2.40;;;19.90;99.90;;;;;;5067861;28;20074;-75
2021/06/21 10:47:40;;;;;;;3.45;3.10;;;19.90;99.90;;;;;;5069560;28;20063;-72
2021/06/21 10:50:09;;;;;;;3.35;2.50;;;19.90;99.90;;;;;;5066438;28;20037;-75
2021/06/21 10:52:59;;;;;;;2.55;2.40;;;20.00;99.90;;;;;;5067431;28;20029;-77
2021/06/21 10:55:30;;;;;;;2.45;2.35;;;20.20;99.90;;;;;;5081423;28;20032;-75
2021/06/21 10:58:23;;;;;;;3.08;2.88;;;20.20;99.90;;;;;;5067903;28;20035;-74
2021/06/21 11:00:53;;;;;;;;;;;20.10;99.90;;;;;;5072322;28;20115;-74
2021/06/21 11:03:26;;;;;;;2.85;2.30;;;20.10;99.90;;;;;;5071905;28;19962;-73
2021/06/21 11:06:00;;;;;;;3.08;2.88;;;20.40;99.90;;;;;;5070804;28;20032;-77
2021/06/21 11:08:39;;;;;;;3.35;3.05;;;20.40;99.90;;;;;;5069358;28;20050;-74
2021/06/21 11:11:34;;;;;;;4.63;3.03;;;20.40;99.90;;;;;;5067449;28;20024;-78
2021/06/21 11:14:13;;;;;;;3.75;3.00;;;20.30;99.90;;;;;;5068400;28;20028;-76
2021/06/21 11:16:41;;;;;;;3.70;3.40;;;20.30;99.90;;;;;;5076391;28;20576;-77
2021/06/21 11:19:20;;;;;;;4.40;4.05;;;20.30;99.90;;;;;;5068681;28;20020;-77
2021/06/21 11:21:50;;;;;;;3.80;3.50;;;20.30;99.90;;;;;;5073172;28;20032;-75
2021/06/21 11:24:46;;;;;;;3.22;3.03;;;20.20;99.90;;;;;;5067964;28;20084;-76
2021/06/21 11:27:24;;;;;;;3.38;3.17;;;20.30;99.90;;;;;;5063922;28;20100;-78
2021/06/21 11:29:58;;;;;;;3.95;3.20;;;20.30;99.90;;;;;;5071834;28;20039;-76
2021/06/21 11:32:26;;;;;;;3.92;3.53;;;20.30;99.90;;;;;;5066950;28;20146;-72
2021/06/21 11:34:55;;;;;;;4.28;3.97;;;20.30;99.90;;;;;;5068348;28;20028;-75
2021/06/21 11:37:42;;;;;;;3.60;3.40;;;20.30;99.90;;;;;;5068515;28;20020;-76
2021/06/21 11:40:32;;;;;;;3.47;3.20;;;20.40;99.90;;;;;;5068042;28;20108;-72
2021/06/21 11:42:57;;;;;;;3.28;2.95;;;20.50;99.90;;;;;;5065036;28;20071;-74
2021/06/21 11:45:49;;;;;;;4.57;3.05;;;20.50;99.90;;;;;;5068424;28;20063;-76
2021/06/21 11:48:24;;;;;;;3.40;3.20;;;20.40;99.90;;;;;;5066334;28;20094;-77
2021/06/21 11:50:50;;;;;;;2.97;2.70;;;20.40;99.90;;;;;;5067745;28;20094;-77
2021/06/21 11:53:16;;;;;;;3.17;2.97;;;20.30;99.90;;;;;;5067409;28;20031;-78
2021/06/21 11:55:42;;;;;;;6.07;3.72;;;20.40;99.90;;;;;;5069665;28;20016;-77
2021/06/21 11:58:09;;;;;;;4.55;4.25;;;20.20;99.90;;;;;;5070591;28;20029;-75
2021/06/21 12:00:35;;;;;;;4.10;3.90;;;20.10;99.90;;;;;;5066059;28;20025;-71
2021/06/21 12:03:19;;;;;;;4.43;4.15;;;20.10;99.90;;;;;;5086257;28;20103;-76
2021/06/21 12:05:54;;;;;;;6.93;4.88;;;20.00;99.90;;;;;;5072249;28;20499;-82
2021/06/21 12:08:20;;;;;;;4.78;4.47;;;20.00;99.90;;;;;;5078145;28;20025;-80
2021/06/21 12:10:46;;;;;;;4.57;4.28;;;20.10;99.90;;;;;;5073473;28;20028;-78
2021/06/21 12:13:12;;;;;;;5.10;4.70;;;20.10;99.90;;;;;;5074332;28;20056;-72
2021/06/21 12:15:42;;;;;;;5.88;5.38;;;20.10;99.90;;;;;;5076377;28;20016;-79
2021/06/21 12:18:08;;;;;;;5.32;4.93;;;20.00;99.90;;;;;;5080530;28;20421;-73
2021/06/21 12:20:35;;;;;;;6.28;4.40;;;19.90;99.90;;;;;;5075585;28;20472;-74
2021/06/21 12:23:10;;;;;;;5.07;4.55;;;19.90;99.90;;;;;;5074652;28;20040;-77
2021/06/21 12:25:38;;;;;;;4.63;4.28;;;20.00;99.90;;;;;;5077398;28;20123;-77
2021/06/21 12:28:20;;;;;;;6.95;4.90;;;20.00;99.90;;;;;;5079056;28;20095;-75
2021/06/21 12:30:50;;;;;;;7.15;4.13;;;20.00;99.90;;;;;;5071790;28;20422;-73
2021/06/21 12:33:25;;;;;;;4.47;4.18;;;20.10;99.90;;;;;;5075014;28;20048;-75
2021/06/21 12:36:25;;;;;;;4.28;3.83;;;20.10;99.90;;;;;;5069109;28;20028;-71
2021/06/21 12:38:50;;;;;;;4.88;4.32;;;20.10;99.90;;;;;;5057224;28;20051;-70
2021/06/21 12:41:25;;;;;;;5.10;4.80;;;20.00;99.90;;;;;;5071508;28;20033;-70
2021/06/21 12:43:52;;;;;;;5.10;4.70;;;20.10;99.90;;;;;;5071883;28;20032;-70
2021/06/21 12:46:20;;;;;;;4.82;4.28;;;20.10;99.90;;;;;;5074307;28;20526;-71
2021/06/21 12:48:46;;;;;;;6.75;4.20;;;20.20;99.90;;;;;;5074501;28;20025;-70
2021/06/21 12:51:12;;;;;;;5.68;4.70;;;20.20;99.90;;;;;;5072696;28;20468;-70
2021/06/21 12:53:47;;;;;;;5.68;4.90;;;20.30;99.90;;;;;;5078290;28;20070;-70
2021/06/21 12:56:40;;;;;;;6.10;5.43;;;20.30;99.90;;;;;;5072915;28;20030;-70